Time;durP1;ratioP1;P1;durP2;ratioP2;P2;SDS_P1;SDS_P2;PMS_P1;PMS_P2;Temp;Humidity;BMP_temperature;BMP_pressure;BME280_temperature;BME280_humidity;BME280_pressure;Samples;Min_cycle;Max_cycle;Signal;HPM_P1;HPM_P2
2022/06/09 00:01:31;;;;;;;;;;;17.00;99.90;;;13.68;100.00;99770.94;5073591;28;19928;-83
2022/06/09 00:04:03;;;;;;;;;;;17.00;99.90;;;13.65;100.00;99768.66;5072447;28;19930;-83
2022/06/09 00:06:35;;;;;;;;;;;17.00;99.90;;;13.71;100.00;99774.28;5073022;28;19982;-83
2022/06/09 00:09:04;;;;;;;;;;;17.00;99.90;;;13.64;100.00;99779.81;5072220;28;19981;-83
2022/06/09 00:11:36;;;;;;;;;;;17.00;99.90;;;13.65;100.00;99782.34;5073098;28;19931;-84
2022/06/09 00:14:04;;;;;;;;;;;17.00;99.90;;;13.61;100.00;99778.38;5073066;28;19928;-83
2022/06/09 00:16:31;;;;;;;;;;;17.00;99.90;;;13.60;100.00;99784.06;5072788;28;19924;-84
2022/06/09 00:18:58;;;;;;;;;;;16.90;99.90;;;13.63;100.00;99787.19;5054255;28;20019;-84
2022/06/09 00:21:25;;;;;;;;;;;16.90;99.90;;;13.63;100.00;99787.19;5072743;28;19928;-83
2022/06/09 00:23:52;;;;;;;;;;;16.90;99.90;;;13.65;100.00;99786.94;5072965;28;19936;-84
2022/06/09 00:26:19;;;;;;;;;;;16.90;99.90;;;13.62;100.00;99790.97;5072534;28;20019;-84
2022/06/09 00:28:48;;;;;;;;;;;16.90;99.90;;;13.65;100.00;99785.06;5072013;28;19950;-83
2022/06/09 00:31:15;;;;;;;;;;;16.90;99.90;;;13.74;100.00;99793.00;5072423;28;19928;-84
2022/06/09 00:33:42;;;;;;;;;;;16.90;99.90;;;13.81;100.00;99789.13;5069584;28;20556;-83
2022/06/09 00:36:09;;;;;;;;;;;16.90;99.90;;;13.83;100.00;99787.00;5072282;28;19924;-83
2022/06/09 00:38:36;;;;;;;;;;;16.90;99.90;;;13.80;100.00;99800.28;5071784;28;19929;-83
2022/06/09 00:41:03;;;;;;;;;;;16.90;99.90;;;13.77;100.00;99792.56;5072571;28;20058;-83
2022/06/09 00:43:30;;;;;;;;;;;16.90;99.90;;;13.80;100.00;99803.03;5072362;28;20643;-84
2022/06/09 00:46:06;;;;;;;;;;;16.90;99.90;;;13.79;100.00;99801.38;5072294;28;19928;-83
2022/06/09 00:48:42;;;;;;;;;;;16.90;99.90;;;13.87;100.00;99804.66;5051831;28;20483;-84
2022/06/09 00:51:28;;;;;;;;;;;16.90;99.90;;;13.91;100.00;99810.50;5068852;28;19932;-83
2022/06/09 00:53:57;;;;;;;;;;;16.90;99.90;;;13.96;100.00;99810.69;5072228;28;19932;-83
2022/06/09 00:56:25;;;;;;;;;;;16.90;99.90;;;13.96;100.00;99810.69;5071212;28;19924;-83
2022/06/09 00:58:54;;;;;;;;;;;16.90;99.90;;;13.93;100.00;99811.13;5071471;28;20017;-83
2022/06/09 01:01:23;;;;;;;;;;;16.90;99.90;;;13.96;100.00;99810.69;5071992;28;19928;-84
2022/06/09 01:03:52;;;;;;;;;;;17.00;99.90;;;13.99;100.00;99815.72;5071811;28;19936;-83
2022/06/09 01:06:22;;;;;;;;;;;17.00;99.90;;;14.00;100.00;99825.59;5052235;28;19931;-83
2022/06/09 01:08:54;;;;;;;;;;;17.00;99.90;;;13.95;100.00;99822.66;5062176;28;20377;-84
2022/06/09 01:11:22;;;;;;;;;;;17.00;99.90;;;13.96;100.00;99824.34;5071870;28;19978;-84
2022/06/09 01:13:49;;;;;;;;;;;17.00;99.90;;;13.98;100.00;99824.97;5033796;28;19929;-84
2022/06/09 01:16:23;;;;;;;;;;;17.00;99.90;;;13.99;100.00;99828.53;5063699;28;19951;-83
2022/06/09 01:18:59;;;;;;;;;;;17.00;99.90;;;13.99;100.00;99828.53;5071011;28;19939;-84
2022/06/09 01:21:56;;;;;;;;;;;17.00;99.90;;;13.92;100.00;99825.00;5072223;28;19928;-84
2022/06/09 01:25:04;;;;;;;;;;;17.00;99.90;;;13.96;100.00;99829.00;5050228;28;19991;-84
2022/06/09 01:27:55;;;;;;;;;;;17.00;99.90;;;13.97;100.00;99836.13;4996374;28;19930;-84
2022/06/09 01:30:31;;;;;;;;;;;17.00;99.90;;;13.94;100.00;99829.22;5071323;28;19925;-84
2022/06/09 01:33:01;;;;;;;;;;;17.00;99.90;;;13.96;100.00;99829.84;5071657;28;19956;-84
2022/06/09 01:35:32;;;;;;;;;;;17.00;99.90;;;13.98;100.00;99833.19;5053586;28;19928;-84
2022/06/09 01:38:00;;;;;;;;;;;17.00;99.90;;;14.03;100.00;99838.81;5070373;28;20023;-84
2022/06/09 01:40:28;;;;;;;;;;;17.00;99.90;;;14.00;100.00;99831.06;5053199;28;19928;-84
2022/06/09 01:42:57;;;;;;;;;;;17.00;99.90;;;13.98;100.00;99835.91;5071354;28;20376;-83
2022/06/09 01:45:26;;;;;;;;;;;17.00;99.90;;;14.01;100.00;99837.34;5070770;28;19928;-83
2022/06/09 01:48:05;;;;;;;;;;;17.00;99.90;;;14.01;100.00;99838.22;5070413;28;19964;-83
2022/06/09 01:50:37;;;;;;;;;;;17.00;99.90;;;13.96;100.00;99843.50;5071322;28;19954;-83
2022/06/09 01:53:10;;;;;;;;;;;17.00;99.90;;;13.94;100.00;99848.38;5071101;28;20364;-83
2022/06/09 01:55:41;;;;;;;;;;;17.00;99.90;;;13.93;100.00;99854.06;5052972;28;20133;-84
2022/06/09 01:58:09;;;;;;;;;;;16.90;99.90;;;13.94;100.00;99858.47;5069260;28;20007;-83
2022/06/09 02:00:37;;;;;;;;;;;16.90;99.90;;;13.92;100.00;99855.97;5052795;28;20027;-83
2022/06/09 02:03:07;;;;;;;;;;;16.90;99.90;;;13.85;100.00;99856.00;5070905;28;19929;-83
2022/06/09 02:05:39;;;;;;;;;;;16.90;99.90;;;13.87;100.00;99855.78;5070716;28;20385;-82
2022/06/09 02:08:08;;;;;;;;;;;16.90;99.90;;;13.85;100.00;99861.47;5064437;28;19928;-82
2022/06/09 02:10:38;;;;;;;;;;;16.90;99.90;;;13.84;100.00;99853.47;5070582;28;19924;-82
2022/06/09 02:13:07;;;;;;;;;;;16.90;99.90;;;13.81;100.00;99859.41;5070428;28;19931;-82
2022/06/09 02:15:38;;;;;;;;;;;16.90;99.90;;;13.81;100.00;99860.25;5070788;28;19936;-83
2022/06/09 02:18:09;;;;;;;;;;;16.90;99.90;;;13.84;100.00;99858.94;5069963;28;19925;-83
2022/06/09 02:20:41;;;;;;;;;;;16.90;99.90;;;13.87;100.00;99859.34;5070650;28;20625;-82
2022/06/09 02:23:10;;;;;;;;;;;16.80;99.90;;;13.83;100.00;99866.31;5070417;28;20027;-82
2022/06/09 02:25:38;;;;;;;;;;;16.80;99.90;;;13.81;100.00;99870.34;5070726;28;20313;-82
2022/06/09 02:28:06;;;;;;;;;;;16.80;99.90;;;13.77;100.00;99869.97;5069829;28;19986;-82
2022/06/09 02:30:33;;;;;;;;;;;16.80;99.90;;;13.68;100.00;99869.38;5071312;28;19924;-83
2022/06/09 02:33:00;;;;;;;;;;;16.80;99.90;;;13.68;100.00;99879.47;5052699;28;20300;-82
2022/06/09 02:35:28;;;;;;;;;;;16.80;99.90;;;13.63;100.00;99880.16;5068454;28;20419;-82
2022/06/09 02:37:55;;;;;;;;;;;16.80;99.90;;;13.58;100.00;99882.72;5070238;28;19928;-82
2022/06/09 02:40:22;;;;;;;;;;;16.80;99.90;;;13.53;100.00;99890.72;5057120;28;19968;-82
2022/06/09 02:42:49;;;;;;;;;;;16.80;99.90;;;13.50;100.00;99896.66;5077893;28;20393;-82
2022/06/09 02:45:17;;;;;;;;;;;16.80;99.90;;;13.50;100.00;99891.19;5076372;28;19987;-82
2022/06/09 02:47:45;;;;;;;;;;;16.80;99.90;;;13.42;100.00;99889.53;5075966;28;19983;-82
2022/06/09 02:50:12;;;;;;;;;;;16.70;99.90;;;13.42;100.00;99883.22;5071270;28;19928;-82
2022/06/09 02:52:41;;;;;;;;;;;16.70;99.90;;;13.36;100.00;99881.38;5070916;28;19982;-82
2022/06/09 02:55:10;;;;;;;;;;;16.70;99.90;;;13.33;100.00;99879.06;5071110;28;20395;-82
2022/06/09 02:57:37;;;;;;;;;;;16.70;99.90;;;13.29;100.00;99884.94;5070192;28;19928;-83
2022/06/09 03:00:06;;;;;;;;;;;16.80;99.90;;;13.23;100.00;99887.69;5070074;28;19928;-83
2022/06/09 03:02:33;;;;;;;;;;;16.60;99.90;;;13.17;100.00;99886.66;5070208;28;20320;-83
2022/06/09 03:05:01;;;;;;;;;;;16.60;99.90;;;13.17;100.00;99886.66;5070161;28;19954;-83
2022/06/09 03:07:28;;;;;;;;;;;16.60;99.90;;;13.14;100.00;99881.66;5069840;28;19935;-83
2022/06/09 03:09:59;;;;;;;;;;;16.50;99.90;;;13.14;100.00;99892.59;5070755;28;20397;-83
2022/06/09 03:12:26;;;;;;;;;;;16.50;99.90;;;13.12;100.00;99889.22;5051763;28;19925;-82
2022/06/09 03:14:53;;;;;;;;;;;16.50;99.90;;;13.02;100.00;99903.34;5070001;28;20011;-83
2022/06/09 03:17:20;;;;;;;;;;;16.50;99.90;;;13.07;100.00;99897.22;5070165;28;19925;-83
2022/06/09 03:19:47;;;;;;;;;;;16.40;99.90;;;13.10;100.00;99903.09;5071854;28;19932;-83
2022/06/09 03:22:14;;;;;;;;;;;16.50;99.90;;;13.09;100.00;99904.16;5074036;28;20019;-83
2022/06/09 03:24:42;;;;;;;;;;;16.40;99.90;;;13.15;100.00;99907.91;5074614;28;20304;-83
2022/06/09 03:27:10;;;;;;;;;;;16.40;99.90;;;13.24;100.00;99913.97;5073812;28;19933;-83
2022/06/09 03:29:37;;;;;;;;;;;16.40;99.90;;;13.30;100.00;99913.97;5073321;28;20415;-83
2022/06/09 03:32:05;;;;;;;;;;;16.50;99.90;;;13.33;100.00;99911.84;5074174;28;19935;-83
2022/06/09 03:34:32;;;;;;;;;;;16.50;99.90;;;13.39;100.00;99913.72;5073675;28;19940;-84
2022/06/09 03:36:59;;;;;;;;;;;16.50;99.90;;;13.41;100.00;99908.88;5073792;28;19967;-83
2022/06/09 03:39:26;;;;;;;;;;;16.50;99.90;;;13.43;100.00;99917.69;5073140;28;19925;-84
2022/06/09 03:41:53;;;;;;;;;;;16.50;99.90;;;13.42;100.00;99929.69;5073898;28;19967;-83
2022/06/09 03:44:21;;;;;;;;;;;16.50;99.90;;;13.45;100.00;99932.00;5073913;28;19928;-83
2022/06/09 03:46:50;;;;;;;;;;;16.50;99.90;;;13.50;100.00;99932.19;5073688;28;20164;-83
2022/06/09 03:49:17;;;;;;;;;;;16.50;99.90;;;13.51;100.00;99928.38;5072769;28;19950;-83
2022/06/09 03:51:44;;;;;;;;;;;16.50;99.90;;;13.52;100.00;99935.53;5073475;28;19966;-83
2022/06/09 03:54:11;;;;;;;;;;;16.50;99.90;;;13.55;100.00;99935.06;5073284;28;19925;-82
2022/06/09 03:56:38;;;;;;;;;;;16.50;99.90;;;13.53;100.00;99934.47;5073283;28;19959;-84
2022/06/09 03:59:05;;;;;;;;;;;16.60;99.90;;;13.56;100.00;99928.56;5072623;28;20534;-83
2022/06/09 04:01:33;;;;;;;;;;;16.50;99.90;;;13.53;100.00;99934.47;5073440;28;19966;-83
2022/06/09 04:04:00;;;;;;;;;;;16.60;99.90;;;13.55;100.00;99934.25;5072865;28;19936;-83
2022/06/09 04:06:27;;;;;;;;;;;16.50;99.90;;;13.66;100.00;99944.50;5070452;28;20388;-83
2022/06/09 04:08:54;;;;;;;;;;;16.50;99.90;;;13.61;100.00;99942.44;5052771;28;19925;-83
2022/06/09 04:11:23;;;;;;;;;;;16.50;99.90;;;13.63;100.00;99951.25;5053059;28;19931;-83
2022/06/09 04:13:50;;;;;;;;;;;16.60;99.90;;;13.57;100.00;99957.56;5063759;28;19932;-83
2022/06/09 04:16:23;;;;;;;;;;;16.60;99.90;;;13.64;100.00;99961.13;5072852;28;19931;-83
2022/06/09 04:18:51;;;;;;;;;;;16.50;99.90;;;13.66;100.00;99967.19;5072409;28;19939;-83
2022/06/09 04:21:19;;;;;;;;;;;16.60;99.90;;;13.68;100.00;99978.75;5072561;28;19935;-83
2022/06/09 04:23:49;;;;;;;;;;;16.50;99.90;;;13.64;100.00;99983.00;5054830;28;19935;-83
2022/06/09 04:26:18;;;;;;;;;;;16.50;99.90;;;13.65;100.00;99984.69;5072723;28;19935;-82
2022/06/09 04:28:46;;;;;;;;;;;16.60;99.90;;;13.66;100.00;99982.78;5071870;28;19935;-83
2022/06/09 04:31:14;;;;;;;;;;;16.60;99.90;;;13.63;100.00;99986.78;5072387;28;19958;-83
2022/06/09 04:33:42;;;;;;;;;;;16.60;99.90;;;13.62;100.00;99987.00;5072548;28;19967;-83
2022/06/09 04:36:12;;;;;;;;;;;16.60;99.90;;;13.58;100.00;99983.88;5072380;28;19935;-83
2022/06/09 04:38:39;;;;;;;;;;;16.60;99.90;;;13.59;100.00;99981.97;5072004;28;19940;-83
2022/06/09 04:41:09;;;;;;;;;;;16.60;99.90;;;13.62;100.00;99993.31;5072650;28;20027;-83
2022/06/09 04:43:37;;;;;;;;;;;16.60;99.90;;;13.65;100.00;99994.75;5071013;28;20019;-83
2022/06/09 04:46:04;;;;;;;;;;;16.60;99.90;;;13.64;100.00;99991.19;5072101;28;19929;-83
2022/06/09 04:48:32;;;;;;;;;;;16.60;99.90;;;13.66;100.00;100005.47;5053853;28;19928;-83
2022/06/09 04:50:59;;;;;;;;;;;16.60;99.90;;;13.63;100.00;99999.59;5072302;28;19928;-83
2022/06/09 04:53:27;;;;;;;;;;;16.60;99.90;;;13.65;100.00;100009.28;5072166;28;19971;-84
2022/06/09 04:55:54;;;;;;;;;;;16.60;99.90;;;13.72;100.00;100008.41;5072420;28;20373;-82
2022/06/09 04:58:21;;;;;;;;;;;16.60;99.90;;;13.68;100.00;100005.28;5071580;28;20320;-82
2022/06/09 05:00:48;;;;;;;;;;;16.60;99.90;;;13.72;100.00;100008.41;5072038;28;19924;-83
2022/06/09 05:03:15;;;;;;;;;;;16.60;99.90;;;13.79;100.00;100010.06;5067876;22;19926;-83
2022/06/09 05:05:45;;;;;;;;;;;16.70;99.90;;;13.85;100.00;100011.09;4986480;28;19926;-83
2022/06/09 05:08:12;;;;;;;;;;;16.60;99.90;;;13.93;100.00;100018.19;4985699;28;19930;-86
2022/06/09 05:10:41;;;;;;;;;;;16.70;99.90;;;13.87;100.00;100018.00;4972248;28;19926;-85
2022/06/09 05:13:09;;;;;;;;;;;16.70;99.90;;;13.88;100.00;100018.88;4994896;28;20024;-84
2022/06/09 05:15:37;;;;;;;;;;;16.70;99.90;;;13.86;100.00;100023.72;5086306;28;19936;-80
2022/06/09 05:18:05;;;;;;;;;;;16.70;99.90;;;13.93;100.00;100029.97;5071238;28;20031;-80
2022/06/09 05:20:32;;;;;;;;;;;16.70;99.90;;;13.96;100.00;100028.72;5088255;28;19931;-80
2022/06/09 05:22:59;;;;;;;;;;;16.70;99.90;;;13.99;100.00;100036.47;5085371;28;19929;-80
2022/06/09 05:25:26;;;;;;;;;;;16.80;99.90;;;14.04;100.00;100042.97;5071742;28;19974;-79
2022/06/09 05:27:55;;;;;;;;;;;16.80;99.90;;;14.10;100.00;100040.41;5087338;28;20021;-80
2022/06/09 05:30:23;;;;;;;;;;;16.80;99.90;;;14.10;100.00;100051.34;5085037;28;20007;-82
2022/06/09 05:32:51;;;;;;;;;;;16.80;99.90;;;14.08;100.00;100051.56;5071504;28;19960;-79
2022/06/09 05:35:19;;;;;;;;;;;16.80;99.90;;;14.13;100.00;100050.94;5071448;28;19947;-80
2022/06/09 05:46:04;;;;;;;;;;;16.80;99.90;;;14.31;100.00;100061.94;5086366;28;19928;-81
2022/06/09 05:48:31;;;;;;;;;;;16.90;99.90;;;14.36;100.00;100064.88;5085363;28;19971;-80
2022/06/09 05:50:59;;;;;;;;;;;16.90;99.90;;;14.40;100.00;100071.59;5058371;28;20013;-81
2022/06/09 05:53:26;;;;;;;;;;;16.90;99.90;;;14.37;100.00;100071.19;5087363;28;19990;-83
2022/06/09 05:55:53;;;;;;;;;;;16.90;99.90;;;14.36;100.00;100075.81;5085278;28;20389;-83
2022/06/09 05:58:21;;;;;;;;;;;16.90;99.90;;;14.42;100.00;100074.94;5090677;28;19935;-83
2022/06/09 06:00:48;;;;;;;;;;;16.90;99.90;;;14.50;100.00;100082.03;5090059;28;20019;-84
2022/06/09 06:03:16;;;;;;;;;;;17.00;99.90;;;14.55;100.00;100084.13;5084708;28;20005;-84
2022/06/09 06:08:28;;;;;;;;;;;17.00;99.90;;;14.60;100.00;100087.06;5086036;28;19928;-85
2022/06/09 06:10:56;;;;;;;;;;;17.00;99.90;;;14.61;100.00;100095.06;5085103;28;19935;-84
2022/06/09 06:13:24;;;;;;;;;;;17.10;99.90;;;14.62;100.00;100099.50;5082028;28;19963;-85
2022/06/09 06:15:51;;;;;;;;;;;17.10;99.90;;;14.68;100.00;100100.50;5071793;28;20019;-86
2022/06/09 06:18:18;;;;;;;;;;;17.10;99.90;;;14.74;100.00;100105.09;5072046;28;19928;-85
2022/06/09 06:20:45;;;;;;;;;;;17.10;99.90;;;14.75;100.00;100106.75;5070208;28;19924;-86
2022/06/09 06:23:12;;;;;;;;;;;17.10;99.90;;;14.74;100.00;100112.47;5069888;28;20443;-85
2022/06/09 06:25:39;;;;;;;;;;;17.20;99.90;;;14.79;100.00;100118.09;5069992;28;19968;-85
2022/06/09 06:28:07;;;;;;;;;;;17.20;99.90;;;14.83;100.00;100117.47;5069680;28;19967;-86
2022/06/09 06:30:36;;;;;;;;;;;17.20;99.90;;;14.81;100.00;100127.81;5087265;28;19932;-87
2022/06/09 06:33:03;;;;;;;;;;;17.20;99.90;;;14.80;100.00;100119.81;5088975;28;19935;-87
2022/06/09 06:35:30;;;;;;;;;;;17.20;99.90;;;14.86;100.00;100124.38;5075268;28;19928;-86
2022/06/09 06:37:57;;;;;;;;;;;17.20;99.90;;;14.86;100.00;100135.34;5052471;28;20437;-88
2022/06/09 06:40:24;;;;;;;;;;;17.20;99.90;;;14.92;100.00;100139.09;5075181;28;19978;-87
2022/06/09 06:42:51;;;;;;;;;;;17.30;99.90;;;14.91;100.00;100143.75;5057883;28;20014;-87
2022/06/09 06:45:19;;;;;;;;;;;17.30;99.90;;;14.86;100.00;100147.13;5070030;28;19932;-88
2022/06/09 06:47:47;;;;;;;;;;;17.30;99.90;;;14.85;100.00;100161.06;5068996;28;20023;-88
2022/06/09 06:50:15;;;;;;;;;;;17.30;99.90;;;14.81;100.00;100157.06;5069932;28;19924;-86
2022/06/09 06:52:43;;;;;;;;;;;17.30;99.90;;;14.78;100.00;100166.59;5075193;28;19929;-88
2022/06/09 06:55:14;;;;;;;;;;;17.30;99.90;;;14.78;100.00;100165.75;5070589;28;20463;-88
2022/06/09 06:57:42;;;;;;;;;;;17.30;99.90;;;14.74;100.00;100168.09;5069545;28;19931;-88
2022/06/09 07:00:12;;;;;;;;;;;17.30;99.90;;;14.72;100.00;100172.97;5074289;28;19932;-87
2022/06/09 07:02:39;;;;;;;;;;;17.30;99.90;;;14.78;100.00;100174.81;5075154;28;19933;-89
2022/06/09 07:05:09;;;;;;;;;;;17.30;99.90;;;14.78;100.00;100179.47;5061853;28;20398;-88
2022/06/09 07:07:37;;;;;;;;;;;17.30;99.90;;;14.79;100.00;100190.19;5074775;28;19939;-88
2022/06/09 07:10:05;;;;;;;;;;;17.30;99.90;;;14.75;100.00;100186.19;5073345;28;19932;-88
2022/06/09 07:12:33;;;;;;;;;;;17.30;99.90;;;14.73;100.00;100190.22;5076370;28;19928;-88
2022/06/09 07:15:00;;;;;;;;;;;17.30;99.90;;;14.75;100.00;100191.66;5072737;28;19932;-88
2022/06/09 07:17:27;;;;;;;;;;;17.30;99.90;;;14.78;100.00;100202.19;5081443;28;19960;-87
2022/06/09 07:19:54;;;;;;;;;;;17.30;99.90;;;14.78;100.00;100209.59;5075472;28;19924;-87
2022/06/09 07:22:22;;;;;;;;;;;17.30;99.90;;;14.66;100.00;100203.97;5069720;28;19972;-86
2022/06/09 07:24:49;;;;;;;;;;;17.30;99.90;;;14.65;100.00;100210.50;5068910;28;20015;-86
2022/06/09 07:27:18;;;;;;;;;;;17.20;99.90;;;14.66;100.00;100213.03;5069743;28;19967;-86
2022/06/09 07:29:47;;;;;;;;;;;17.20;99.90;;;14.62;100.00;100221.88;5054325;28;20009;-85
2022/06/09 07:32:15;;;;;;;;;;;17.30;99.90;;;14.63;100.00;100216.19;5070983;28;19931;-86
2022/06/09 07:34:42;;;;;;;;;;;17.30;99.90;;;14.69;100.00;100228.16;5069350;28;19932;-86
2022/06/09 07:37:09;;;;;;;;;;;17.30;99.90;;;14.75;100.00;100227.28;5081050;28;19928;-87
2022/06/09 07:39:37;;;;;;;;;;;17.30;99.90;;;14.79;100.00;100223.06;5079109;28;20365;-87
2022/06/09 07:42:05;;;;;;;;;;;17.30;99.90;;;14.84;100.00;100225.97;5070172;28;19931;-88
2022/06/09 07:44:32;;;;;;;;;;;17.30;99.90;;;14.91;100.00;100228.69;5079827;28;19928;-87
2022/06/09 07:46:59;;;;;;;;;;;17.30;99.90;;;14.96;100.00;100228.00;5089645;28;20293;-87
2022/06/09 07:49:27;;;;;;;;;;;17.30;99.90;;;14.96;100.00;100241.72;5086551;28;19924;-87
2022/06/09 07:51:54;;;;;;;;;;;17.30;99.90;;;14.94;100.00;100241.94;5082851;28;19963;-87
2022/06/09 07:54:22;;;;;;;;;;;17.30;99.90;;;15.02;100.00;100235.34;5070993;28;20031;-88
2022/06/09 07:56:50;;;;;;;;;;;17.30;99.90;;;15.07;100.00;100238.28;5051606;28;19935;-86
2022/06/09 07:59:17;;;;;;;;;;;17.40;99.90;;;15.15;100.00;100246.22;5082891;28;19924;-86
2022/06/09 08:01:46;;;;;;;;;;;17.40;99.90;;;15.15;100.00;100243.47;5075711;28;19924;-86
2022/06/09 08:04:13;;;;;;;;;;;17.40;99.90;;;15.13;100.00;100251.09;5089338;28;19932;-86
2022/06/09 08:06:40;;;;;;;;;;;17.50;99.90;;;15.16;100.00;100247.09;5091562;28;19931;-88
2022/06/09 08:09:07;;;;;;;;;;;17.40;99.90;;;15.18;100.00;100254.00;5090914;28;19924;-88
2022/06/09 08:11:37;;;;;;;;;;;17.50;99.90;;;15.15;100.00;100257.19;5073020;28;20109;-87
2022/06/09 08:14:06;;;;;;;;;;;17.50;99.90;;;15.18;100.00;100264.97;5082854;28;19935;-86
2022/06/09 08:16:34;;;;;;;;;;;17.50;99.90;;;15.16;100.00;100267.09;5081593;28;20721;-86
2022/06/09 08:19:01;;;;;;;;;;;17.50;99.90;;;15.18;100.00;100272.38;5074822;28;19932;-87
2022/06/09 08:21:29;;;;;;;;;;;17.50;99.90;;;15.29;100.00;100271.66;5089491;28;19928;-87
2022/06/09 08:23:56;;;;;;;;;;;17.50;99.90;;;15.47;100.00;100279.09;5093074;28;19935;-86
2022/06/09 08:26:24;;;;;;;;;;;17.60;99.90;;;15.71;100.00;100280.19;5092378;28;19928;-86
2022/06/09 08:28:52;;;;;;;;;;;17.60;99.90;;;16.07;100.00;100288.75;5082876;28;19928;-85
2022/06/09 08:31:20;;;;;;;;;;;17.60;99.90;;;16.26;100.00;100287.72;5092774;28;20022;-85
2022/06/09 08:33:47;;;;;;;;;;;17.70;99.90;;;16.54;100.00;100289.91;5072914;28;19931;-85
2022/06/09 08:36:14;;;;;;;;;;;17.80;99.90;;;16.75;100.00;100290.50;5073541;28;19971;-84
2022/06/09 08:38:42;;;;;;;;;;;17.80;99.90;;;16.94;100.00;100297.69;5069310;28;20472;-86
2022/06/09 08:41:17;;;;;;;;;;;17.90;99.90;;;17.13;100.00;100292.16;5092889;28;20019;-87
2022/06/09 08:43:47;;;;;;;;;;;18.00;99.90;;;17.47;100.00;100296.06;5073108;28;19928;-86
2022/06/09 08:46:25;;;;;;;;;;;18.10;99.90;;;17.73;100.00;100296.75;5092141;28;20296;-84
2022/06/09 08:48:55;;;;;;;;;;;18.20;99.90;;;17.75;100.00;100294.59;5071944;28;19978;-84
2022/06/09 08:51:38;;;;;;;;;;;18.30;99.90;;;17.75;100.00;100300.09;5072416;28;19928;-87
2022/06/09 08:54:10;;;;;;;;;;;18.40;99.90;;;17.66;100.00;100299.59;5076556;28;20010;-87
2022/06/09 08:56:37;;;;;;;;;;;18.40;99.90;;;17.94;100.00;100298.09;5072793;28;19979;-85
2022/06/09 08:59:10;;;;;;;;;;;18.50;99.90;;;18.14;100.00;100290.34;5064591;28;20022;-85
2022/06/09 09:01:43;;;;;;;;;;;18.60;99.90;;;18.26;100.00;100293.06;5079634;28;19938;-84
2022/06/09 09:04:19;;;;;;;;;;;18.70;99.90;;;18.33;100.00;100291.03;5080236;28;19934;-84
2022/06/09 09:06:51;;;;;;;;;;;18.70;99.90;;;18.26;100.00;100301.34;5079834;28;19928;-86
2022/06/09 09:09:22;;;;;;;;;;;18.80;99.90;;;18.32;100.00;100294.84;5073061;28;19935;-84
2022/06/09 09:11:57;;;;;;;;;;;18.80;99.90;;;18.28;100.00;100299.16;5075007;28;19932;-86
2022/06/09 09:14:29;;;;;;;;;;;18.90;99.90;;;18.29;100.00;100300.84;5079480;28;19963;-86
2022/06/09 09:17:03;;;;;;;;;;;19.00;99.90;;;18.23;100.00;100303.72;5074190;28;20023;-85
2022/06/09 09:19:42;;;;;;;;;;;19.00;99.90;;;18.19;100.00;100311.63;5054674;28;19932;-83
2022/06/09 09:22:13;;;;;;;;;;;19.00;99.90;;;18.28;100.00;100304.69;5075884;28;19936;-82
2022/06/09 09:24:45;;;;;;;;;;;19.00;99.90;;;18.35;100.00;100310.91;5071407;28;20399;-83
2022/06/09 09:27:24;;;;;;;;;;;19.10;99.90;;;18.59;100.00;100305.34;5082885;28;19928;-83
2022/06/09 09:30:03;;;;;;;;;;;19.10;99.90;;;18.63;100.00;100306.53;5074382;28;19929;-83
2022/06/09 09:32:40;;;;;;;;;;;19.20;99.90;;;18.58;100.00;100311.94;5073262;28;19997;-83
2022/06/09 09:35:13;;;;;;;;;;;19.20;99.90;;;18.63;100.00;100306.53;5080725;28;19933;-83
2022/06/09 09:37:44;;;;;;;;;;;19.30;99.90;;;18.79;100.00;100309.59;5077017;28;19928;-83
2022/06/09 09:40:18;;;;;;;;;;;19.30;99.90;;;18.71;100.00;100325.44;5090500;28;19924;-83
2022/06/09 09:42:47;;;;;;;;;;;19.30;99.90;;;18.62;100.00;100326.94;5079468;28;19926;-83
2022/06/09 09:45:18;;;;;;;;;;;19.30;99.90;;;18.69;100.00;100335.88;5088126;28;19966;-83
2022/06/09 09:47:50;;;;;;;;;;;19.30;99.90;;;18.80;100.00;100327.84;5077971;28;19935;-83
2022/06/09 09:50:27;;;;;;;;;;;19.40;99.90;;;18.70;100.00;100339.50;5078214;28;19968;-83
2022/06/09 09:52:59;;;;;;;;;;;19.40;99.90;;;18.67;100.00;100335.28;5078551;28;19986;-83
2022/06/09 09:55:35;;;;;;;;;;;19.40;99.90;;;18.83;100.00;100343.91;5079481;28;19924;-82
2022/06/09 09:58:20;;;;;;;;;;;19.40;99.90;;;18.90;100.00;100342.69;5066410;28;20011;-83
2022/06/09 10:00:50;;;;;;;;;;;19.50;99.90;;;18.95;100.00;100347.50;5064306;28;20299;-83
2022/06/09 10:08:55;;;;;;;;;;;19.60;99.90;;;19.35;100.00;100360.41;5081521;28;19970;-83
2022/06/09 10:14:36;;;;;;;;;;;19.80;99.90;;;19.34;100.00;100362.34;5091036;28;20112;-83
2022/06/09 10:17:05;;;;;;;;;;;19.90;99.90;;;19.42;100.00;100363.00;5089253;28;19935;-83
2022/06/09 10:19:34;;;;;;;;;;;19.90;99.90;;;19.45;100.00;100368.88;5078609;28;19999;-84
2022/06/09 10:22:03;;;;;;;;;;;20.00;99.90;;;19.34;100.00;100372.53;5088655;28;19934;-84
2022/06/09 10:24:37;;;;;;;;;;;20.00;99.90;;;19.03;100.00;100371.09;5090922;28;19939;-83
2022/06/09 10:27:05;;;;;;;;;;;20.00;99.90;;;18.90;100.00;100378.53;5090736;28;19924;-84
2022/06/09 10:29:40;;;;;;;;;;;19.90;99.90;;;19.05;100.00;100375.28;5090092;28;20046;-83
2022/06/09 10:32:15;;;;;;;;;;;19.90;99.90;;;19.11;100.00;100376.22;5090772;28;20622;-84
2022/06/09 10:34:48;;;;;;;;;;;19.90;99.90;;;19.37;100.00;100383.09;5090677;28;19959;-84
2022/06/09 10:37:21;;;;;;;;;;;19.90;99.90;;;19.59;100.00;100379.63;5090748;28;20019;-84
2022/06/09 10:39:53;;;;;;;;;;;20.10;99.90;;;19.52;100.00;100388.91;5090042;28;20388;-84
2022/06/09 10:42:26;;;;;;;;;;;20.00;99.90;;;19.47;100.00;100383.28;5093281;28;20674;-83
2022/06/09 10:45:02;;;;;;;;;;;20.00;99.90;;;19.42;100.00;100385.97;5090562;28;20018;-84
2022/06/09 10:56:05;;;;;;;;;;;19.80;99.90;;;18.87;100.00;100416.81;5080152;28;19932;-82
2022/06/09 10:58:36;;;;;;;;;;;19.80;99.90;;;19.11;100.00;100407.41;5089715;28;19924;-82
2022/06/09 11:01:04;;;;;;;;;;;19.90;99.90;;;19.41;100.00;100403.59;5070381;28;19950;-83
2022/06/09 11:03:36;;;;;;;;;;;19.90;99.90;;;19.50;99.64;100415.09;5092319;22;20868;-85
2022/06/09 11:06:19;;;;;;;;;;;20.00;99.90;;;19.60;100.00;100408.91;5089593;28;20034;-84
2022/06/09 11:09:02;;;;;;;;;;;20.10;99.90;;;19.64;100.00;100410.09;5089173;28;19975;-83
2022/06/09 11:11:40;;;;;;;;;;;20.20;99.90;;;19.67;99.33;100409.63;5090106;28;19924;-83
2022/06/09 11:14:15;;;;;;;;;;;20.20;99.90;;;19.71;100.00;100399.75;5077934;28;19947;-84
2022/06/09 11:16:52;;;;;;;;;;;20.30;99.90;;;19.80;100.00;100403.81;5049976;28;20460;-84
2022/06/09 11:19:34;;;;;;;;;;;20.40;99.90;;;19.84;100.00;100404.97;5069184;28;19935;-84
2022/06/09 11:22:07;;;;;;;;;;;20.40;99.90;;;19.87;97.79;100410.00;5069806;28;20694;-84
2022/06/09 11:24:42;;;;;;;;;;;20.50;99.90;;;19.94;100.00;100409.03;5050034;28;19925;-84
2022/06/09 11:27:22;;;;;;;;;;;20.50;99.90;;;20.00;100.00;100402.50;5050632;28;19929;-84
2022/06/09 11:30:03;;;;;;;;;;;20.60;99.90;;;20.05;97.11;100410.88;5090374;28;19950;-84
2022/06/09 11:32:33;;;;;;;;;;;20.60;99.90;;;20.11;98.27;100412.63;5091130;28;19967;-84
2022/06/09 11:35:10;;;;;;;;;;;20.70;99.90;;;20.11;96.74;100420.91;5091045;28;20388;-84
2022/06/09 11:37:55;;;;;;;;;;;20.70;99.90;;;20.23;98.85;100418.91;5087010;28;19963;-84
2022/06/09 11:40:30;;;;;;;;;;;20.70;99.90;;;20.24;95.07;100420.59;5071857;28;19960;-83
2022/06/09 11:43:06;;;;;;;;;;;20.80;99.90;;;20.20;99.22;100429.59;5074067;28;20019;-83
2022/06/09 11:45:37;;;;;;;;;;;20.80;99.90;;;20.03;99.21;100435.13;5073809;28;19928;-85